Airport Name : Campo Delio Jardim De Mattos

Other Name : Rio De Janeiro

ICAO : SBAF

IATA :

FAA :

Latitude : -22.875083

Longitude : -43.384708

Country : Brazil

Local Date and Time : 7/23/2018 10:24:00 AM

 

TAF (Terminal Aerodrome Forecast)

TAF SBAF 230915Z 2312/2324 28006KT 9000 SCT025 TN22/2312Z TX26/2317Z BECMG 2313/2315 9999 NSW FEW030 BECMG 2318/2321 08005KT RMK PCX

 

METAR (METeorological Aerodrome Report)

SBAF 231300Z 13005KT 090V170 4000 HZ SCT010 24/19 Q1024

SBAF 231200Z 11004KT 070V140 4000 BR BKN009 22/19 Q1024

SBAF 231100Z 34001KT 4000 BR BKN008 20/20 Q1024

SBAF 231000Z 28002KT 6000 SCT023 18/17 Q1023